Time;durP1;ratioP1;P1;durP2;ratioP2;P2;SDS_P1;SDS_P2;PMS_P1;PMS_P2;Temp;Humidity;BMP_temperature;BMP_pressure;BME280_temperature;BME280_humidity;BME280_pressure;Samples;Min_cycle;Max_cycle;Signal;HPM_P1;HPM_P2
2022/11/28 00:00:12;;;;;;;8.57;3.92;;;19.60;54.80;;;;;;4902185;29;20370;-73
2022/11/28 00:02:38;;;;;;;7.22;3.85;;;19.60;54.70;;;;;;4885890;29;20432;-73
2022/11/28 00:05:04;;;;;;;5.78;3.33;;;19.60;54.70;;;;;;4867385;29;20032;-72
2022/11/28 00:07:29;;;;;;;9.05;3.88;;;19.70;54.70;;;;;;4882421;29;20131;-73
2022/11/28 00:09:55;;;;;;;7.38;3.50;;;19.60;54.60;;;;;;4884522;29;20131;-73
2022/11/28 00:12:20;;;;;;;6.43;3.47;;;19.70;54.60;;;;;;4871157;29;20053;-73
2022/11/28 00:14:46;;;;;;;7.30;3.53;;;19.70;54.50;;;;;;4882268;29;20052;-73
2022/11/28 00:17:11;;;;;;;6.47;3.22;;;19.70;54.40;;;;;;4853986;29;20052;-72
2022/11/28 00:19:37;;;;;;;6.57;3.53;;;19.70;54.40;;;;;;4859912;29;20052;-73
2022/11/28 00:22:02;;;;;;;7.22;3.63;;;19.70;54.30;;;;;;4878719;29;20052;-72
2022/11/28 00:24:28;;;;;;;6.70;3.25;;;19.70;54.30;;;;;;4874502;29;20048;-73
2022/11/28 00:26:53;;;;;;;5.18;3.15;;;19.80;54.30;;;;;;4867146;29;20119;-72
2022/11/28 00:29:19;;;;;;;5.53;2.88;;;19.70;54.20;;;;;;4862066;29;21109;-72
2022/11/28 00:31:44;;;;;;;8.40;3.20;;;19.80;54.20;;;;;;4868715;29;20712;-72
2022/11/28 00:34:13;;;;;;;7.88;3.38;;;19.80;54.20;;;;;;4881755;29;20308;-73
2022/11/28 00:36:39;;;;;;;5.50;2.90;;;19.80;54.10;;;;;;4879231;29;20056;-73
2022/11/28 00:39:05;;;;;;;5.97;3.05;;;19.80;54.20;;;;;;4882472;29;20124;-73
2022/11/28 00:41:33;;;;;;;4.93;2.95;;;19.70;54.00;;;;;;4882969;29;20134;-73
2022/11/28 00:43:59;;;;;;;6.50;3.03;;;19.80;54.80;;;;;;4879879;29;20048;-72
2022/11/28 00:46:26;;;;;;;6.75;3.08;;;19.80;54.00;;;;;;4861377;29;20060;-73
2022/11/28 00:48:52;;;;;;;7.82;3.08;;;19.80;54.00;;;;;;4863697;29;20608;-73
2022/11/28 00:51:23;;;;;;;7.40;3.40;;;19.80;53.90;;;;;;4858473;29;20221;-72
2022/11/28 00:53:50;;;;;;;6.10;2.53;;;19.80;53.90;;;;;;4880228;29;20337;-73
2022/11/28 00:56:22;;;;;;;5.70;2.85;;;19.80;53.90;;;;;;4882139;29;20076;-73
2022/11/28 00:58:48;;;;;;;4.90;2.40;;;19.80;53.90;;;;;;4866424;29;20429;-73
2022/11/28 01:01:19;;;;;;;4.75;2.70;;;19.80;53.80;;;;;;4881033;29;20602;-73
2022/11/28 01:03:46;;;;;;;4.25;2.67;;;19.80;53.80;;;;;;4866771;29;20053;-73
2022/11/28 01:06:18;;;;;;;4.05;2.50;;;19.80;53.80;;;;;;4860621;29;20156;-73
2022/11/28 01:08:44;;;;;;;4.60;2.65;;;19.70;53.70;;;;;;4866804;29;20052;-74
2022/11/28 01:11:11;;;;;;;6.32;2.80;;;19.80;53.70;;;;;;4875178;29;20528;-72
2022/11/28 01:13:37;;;;;;;4.68;2.63;;;19.80;53.80;;;;;;4902712;29;20170;-73
2022/11/28 01:16:03;;;;;;;5.75;2.53;;;19.80;53.70;;;;;;4882874;29;20056;-72
2022/11/28 01:18:29;;;;;;;4.03;2.55;;;19.80;53.60;;;;;;4887735;29;20044;-73
2022/11/28 01:20:54;;;;;;;4.57;2.47;;;19.80;53.60;;;;;;4884749;29;20059;-73
2022/11/28 01:23:20;;;;;;;5.15;2.60;;;19.80;53.60;;;;;;4884527;29;20505;-72
2022/11/28 01:25:46;;;;;;;4.03;2.58;;;19.80;53.60;;;;;;4877413;29;20059;-72
2022/11/28 01:28:11;;;;;;;4.18;2.33;;;19.80;53.60;;;;;;4879085;29;20041;-72
2022/11/28 01:30:37;;;;;;;4.53;2.40;;;19.80;54.30;;;;;;4881422;29;20056;-73
2022/11/28 01:33:02;;;;;;;3.75;2.42;;;19.80;53.60;;;;;;4899078;29;20143;-73
2022/11/28 01:35:28;;;;;;;3.88;2.28;;;19.80;53.60;;;;;;4881744;29;20055;-73
2022/11/28 01:37:53;;;;;;;4.40;2.35;;;19.80;53.50;;;;;;4901893;29;20131;-72
2022/11/28 01:40:19;;;;;;;4.03;2.50;;;19.80;53.50;;;;;;4882555;29;20052;-72
2022/11/28 01:42:45;;;;;;;4.32;2.17;;;19.80;53.50;;;;;;4883700;29;20044;-73
2022/11/28 01:45:19;;;;;;;3.22;2.15;;;19.80;53.50;;;;;;4885393;29;20087;-72
2022/11/28 01:47:46;;;;;;;3.03;2.10;;;19.80;53.40;;;;;;4899666;29;20469;-72
2022/11/28 01:50:12;;;;;;;4.47;2.17;;;19.80;53.40;;;;;;4880968;29;20087;-73
2022/11/28 01:52:41;;;;;;;3.65;2.03;;;19.80;53.40;;;;;;4883639;29;20060;-74
2022/11/28 01:55:09;;;;;;;5.13;2.60;;;19.80;53.40;;;;;;4881950;29;20103;-73
2022/11/28 01:57:34;;;;;;;3.97;2.17;;;19.80;53.30;;;;;;4898622;29;20801;-72
2022/11/28 02:00:08;;;;;;;3.75;2.30;;;19.80;53.40;;;;;;4883819;29;20131;-73
2022/11/28 02:02:44;;;;;;;3.38;2.08;;;19.80;53.30;;;;;;4899211;29;20049;-73
2022/11/28 02:05:10;;;;;;;3.63;2.17;;;19.80;53.30;;;;;;4899657;29;20493;-73
2022/11/28 02:07:36;;;;;;;4.00;2.53;;;19.80;53.30;;;;;;4896455;29;20048;-73
2022/11/28 02:10:05;;;;;;;3.15;2.05;;;19.80;53.30;;;;;;4866671;29;20048;-73
2022/11/28 02:12:50;;;;;;;3.50;2.25;;;19.80;53.30;;;;;;4886133;29;20049;-73
2022/11/28 02:15:41;;;;;;;3.33;1.98;;;19.80;53.20;;;;;;4887502;29;20068;-72
2022/11/28 02:18:23;;;;;;;3.58;1.88;;;19.80;53.20;;;;;;4884501;29;20465;-73
2022/11/28 02:21:17;;;;;;;2.85;1.90;;;19.80;53.20;;;;;;4880197;29;20209;-73
2022/11/28 02:24:20;;;;;;;4.20;2.33;;;19.70;53.10;;;;;;4883571;29;20044;-73
2022/11/28 02:27:10;;;;;;;2.97;1.90;;;19.80;53.10;;;;;;4877800;29;20696;-74
2022/11/28 02:30:03;;;;;;;3.47;2.03;;;19.80;53.10;;;;;;4896654;29;20048;-73
2022/11/28 02:32:42;;;;;;;4.00;2.17;;;19.80;53.10;;;;;;4894331;29;20040;-73
2022/11/28 02:35:46;;;;;;;2.15;1.80;;;19.80;53.10;;;;;;4887370;29;21609;-73
2022/11/28 02:38:33;;;;;;;4.00;2.20;;;19.80;53.10;;;;;;4880095;29;20056;-73
2022/11/28 02:41:14;;;;;;;3.28;2.00;;;19.80;53.10;;;;;;4886749;29;20052;-72
2022/11/28 02:43:51;;;;;;;3.38;1.92;;;19.80;53.00;;;;;;4884534;29;20079;-74
2022/11/28 02:46:30;;;;;;;3.03;2.00;;;19.80;53.00;;;;;;4887813;29;20183;-72
2022/11/28 02:49:01;;;;;;;3.03;1.88;;;19.80;53.00;;;;;;4902681;29;20564;-73
2022/11/28 02:51:46;;;;;;;4.03;2.15;;;19.80;53.00;;;;;;4882579;29;20100;-73
2022/11/28 02:54:14;;;;;;;4.20;1.70;;;19.80;53.00;;;;;;4884293;29;20135;-73
2022/11/28 02:56:47;;;;;;;2.92;1.80;;;19.80;53.00;;;;;;4905202;29;20509;-73
2022/11/28 02:59:37;;;;;;;2.20;1.75;;;19.80;53.00;;;;;;4893353;29;20044;-72
2022/11/28 03:02:09;;;;;;;2.97;1.90;;;19.80;53.00;;;;;;4870191;29;20140;-72
2022/11/28 03:05:00;;;;;;;3.05;1.80;;;19.80;52.90;;;;;;4900402;29;20049;-73
2022/11/28 03:07:59;;;;;;;3.38;1.90;;;19.80;52.90;;;;;;4873280;29;20072;-73
2022/11/28 03:10:49;;;;;;;2.22;1.60;;;19.80;52.90;;;;;;4881784;29;20040;-72
2022/11/28 03:13:50;;;;;;;2.88;1.65;;;19.80;52.80;;;;;;4900040;29;20051;-73
2022/11/28 03:16:27;;;;;;;4.03;1.70;;;19.80;52.90;;;;;;4847173;29;20044;-73
2022/11/28 03:19:00;;;;;;;2.97;1.63;;;19.80;52.80;;;;;;4885299;29;20052;-73
2022/11/28 03:21:36;;;;;;;3.42;2.03;;;19.80;52.80;;;;;;4897561;29;20052;-73
2022/11/28 03:24:12;;;;;;;3.42;1.42;;;19.80;52.80;;;;;;4885547;29;20051;-73
2022/11/28 03:26:56;;;;;;;2.85;1.55;;;19.80;52.80;;;;;;4900428;29;20111;-73
2022/11/28 03:29:51;;;;;;;2.92;1.55;;;19.80;52.80;;;;;;4891076;29;20459;-72
2022/11/28 03:32:28;;;;;;;2.42;1.40;;;19.80;52.80;;;;;;4883929;29;20083;-72
2022/11/28 03:35:01;;;;;;;3.50;1.70;;;19.80;52.70;;;;;;4882294;29;20051;-72
2022/11/28 03:37:32;;;;;;;3.08;1.58;;;19.80;52.80;;;;;;4883427;29;20428;-73
2022/11/28 03:40:02;;;;;;;3.53;1.77;;;19.90;52.80;;;;;;4883242;29;20040;-73
2022/11/28 03:42:33;;;;;;;3.33;1.45;;;19.80;52.70;;;;;;4876997;29;20058;-73
2022/11/28 03:45:19;;;;;;;1.90;1.58;;;19.80;52.70;;;;;;4867100;29;20044;-72
2022/11/28 03:47:47;;;;;;;2.17;1.60;;;19.80;53.50;;;;;;4887317;29;20436;-73
2022/11/28 03:50:16;;;;;;;;;;;19.80;52.70;;;;;;4902888;29;20055;-73
2022/11/28 03:52:48;;;;;;;2.30;1.70;;;19.80;52.70;;;;;;4885799;29;20019;-73
2022/11/28 03:55:26;;;;;;;2.13;1.73;;;19.80;52.70;;;;;;4900436;29;20036;-74
2022/11/28 03:58:12;;;;;;;2.28;1.40;;;19.80;52.70;;;;;;4883497;29;20115;-73
2022/11/28 04:00:49;;;;;;;1.98;1.58;;;19.80;52.70;;;;;;4898815;29;20056;-73
2022/11/28 04:03:49;;;;;;;3.10;1.58;;;19.80;52.70;;;;;;4886343;29;20048;-74
2022/11/28 04:06:23;;;;;;;2.78;1.40;;;19.80;52.70;;;;;;4869564;29;20052;-74
2022/11/28 04:08:59;;;;;;;2.45;1.40;;;19.80;52.70;;;;;;4875027;29;20033;-73
2022/11/28 04:11:35;;;;;;;2.03;1.38;;;19.80;52.70;;;;;;4872255;29;20063;-73
2022/11/28 04:14:12;;;;;;;1.65;1.40;;;19.90;52.80;;;;;;4899131;29;20048;-73
2022/11/28 04:17:07;;;;;;;3.58;1.70;;;19.80;52.70;;;;;;4899730;29;20044;-73
2022/11/28 04:19:55;;;;;;;2.00;1.60;;;19.80;52.70;;;;;;4893323;29;20058;-73
2022/11/28 04:22:31;;;;;;;1.73;1.20;;;19.80;52.70;;;;;;4883239;29;20235;-73
2022/11/28 04:25:02;;;;;;;2.90;1.63;;;19.80;52.70;;;;;;4899810;29;20147;-73
2022/11/28 04:27:33;;;;;;;2.00;1.48;;;19.90;52.70;;;;;;4899394;29;20090;-73
2022/11/28 04:30:01;;;;;;;2.40;1.25;;;19.80;52.70;;;;;;4891407;29;20048;-74
2022/11/28 04:32:30;;;;;;;2.72;1.60;;;19.80;52.70;;;;;;4884292;29;20052;-73
2022/11/28 04:35:05;;;;;;;1.70;1.10;;;19.80;52.60;;;;;;4883091;29;20040;-73
2022/11/28 04:37:33;;;;;;;1.88;1.30;;;19.90;52.70;;;;;;4898857;29;20047;-72
2022/11/28 04:39:59;;;;;;;1.95;1.48;;;19.90;52.70;;;;;;4899838;29;20055;-73
2022/11/28 04:42:35;;;;;;;2.08;1.60;;;19.80;52.60;;;;;;4903256;29;20115;-73
2022/11/28 04:45:15;;;;;;;2.00;1.40;;;19.80;52.60;;;;;;4898913;29;20091;-73
2022/11/28 04:47:41;;;;;;;2.20;1.33;;;19.80;52.60;;;;;;4896115;29;20063;-73
2022/11/28 04:50:08;;;;;;;2.58;1.70;;;19.90;52.60;;;;;;4899553;29;20052;-73
2022/11/28 04:52:44;;;;;;;2.10;1.50;;;19.80;52.60;;;;;;4884881;29;20119;-73
2022/11/28 04:55:37;;;;;;;1.85;1.30;;;19.80;52.60;;;;;;4896252;29;20040;-73
2022/11/28 04:58:18;;;;;;;2.90;1.67;;;19.80;52.60;;;;;;4872828;29;20524;-73
2022/11/28 05:00:45;;;;;;;1.95;1.40;;;19.80;52.60;;;;;;4898322;29;20031;-74
2022/11/28 05:03:11;;;;;;;2.42;1.50;;;19.80;52.60;;;;;;4883497;29;20182;-72
2022/11/28 05:05:49;;;;;;;2.15;1.40;;;19.80;52.60;;;;;;4897016;29;21244;-73
2022/11/28 05:08:16;;;;;;;2.72;1.42;;;19.80;52.60;;;;;;4895606;29;20087;-73
2022/11/28 05:10:41;;;;;;;1.77;1.33;;;19.90;52.60;;;;;;4897048;29;20505;-73
2022/11/28 05:13:07;;;;;;;2.35;1.45;;;19.80;52.60;;;;;;4865553;29;20071;-73
2022/11/28 05:15:33;;;;;;;1.73;1.40;;;19.90;52.60;;;;;;4882770;29;20040;-73
2022/11/28 05:17:58;;;;;;;2.00;1.30;;;19.90;52.60;;;;;;4886518;29;20044;-73
2022/11/28 05:20:24;;;;;;;1.98;1.30;;;19.80;52.60;;;;;;4896294;29;20044;-73
2022/11/28 05:22:50;;;;;;;2.10;1.40;;;19.90;52.60;;;;;;4897547;29;20040;-74
2022/11/28 05:25:15;;;;;;;1.55;1.27;;;19.80;52.50;;;;;;4897764;29;20521;-73
2022/11/28 05:27:41;;;;;;;1.88;1.20;;;19.80;52.60;;;;;;4896647;29;20139;-73
2022/11/28 05:30:07;;;;;;;1.90;1.33;;;19.80;52.60;;;;;;4875856;29;20401;-73
2022/11/28 05:32:33;;;;;;;1.60;1.20;;;19.90;52.60;;;;;;4906171;29;20393;-73
2022/11/28 05:34:58;;;;;;;1.80;1.20;;;19.90;52.60;;;;;;4884615;29;20051;-73
2022/11/28 05:37:25;;;;;;;1.73;1.23;;;19.90;52.60;;;;;;4881615;29;20056;-74
2022/11/28 05:39:51;;;;;;;1.30;1.20;;;19.80;52.50;;;;;;4898018;29;20127;-74
2022/11/28 05:42:17;;;;;;;2.03;1.40;;;19.90;52.60;;;;;;4884230;29;20054;-72
2022/11/28 05:44:42;;;;;;;2.22;1.13;;;19.90;52.50;;;;;;4863226;29;20044;-74
2022/11/28 05:47:08;;;;;;;1.58;1.20;;;19.90;52.60;;;;;;4880753;29;20123;-73
2022/11/28 05:49:33;;;;;;;2.13;1.35;;;19.90;52.50;;;;;;4878739;29;20067;-73
2022/11/28 05:51:59;;;;;;;1.92;1.23;;;19.90;52.60;;;;;;4857534;29;20521;-73
2022/11/28 05:54:25;;;;;;;1.95;1.48;;;19.90;52.60;;;;;;4898507;29;20048;-73
2022/11/28 05:56:50;;;;;;;1.65;1.23;;;19.90;52.70;;;;;;4882760;29;21120;-74
2022/11/28 05:59:16;;;;;;;1.60;1.20;;;19.80;52.60;;;;;;4897302;29;20036;-73
2022/11/28 06:01:42;;;;;;;2.35;1.40;;;19.80;52.80;;;;;;4863487;29;20044;-73
2022/11/28 06:04:07;;;;;;;3.25;1.30;;;19.70;52.90;;;;;;4879663;29;20341;-73
2022/11/28 06:06:35;;;;;;;2.05;1.40;;;19.70;53.10;;;;;;4882733;29;20555;-73
2022/11/28 06:09:00;;;;;;;2.45;1.30;;;19.70;53.30;;;;;;4881369;29;20053;-72
2022/11/28 06:11:28;;;;;;;1.67;1.40;;;19.70;53.50;;;;;;4896838;29;20113;-73
2022/11/28 06:13:54;;;;;;;2.35;1.40;;;19.70;53.60;;;;;;4884180;29;20044;-73
2022/11/28 06:16:23;;;;;;;1.67;1.20;;;19.70;53.70;;;;;;4882096;29;21327;-75
2022/11/28 06:18:57;;;;;;;1.90;1.23;;;19.70;53.90;;;;;;4899207;29;20047;-74
2022/11/28 06:21:23;;;;;;;1.88;1.35;;;19.60;53.90;;;;;;4879866;29;20060;-75
2022/11/28 06:23:49;;;;;;;3.95;1.50;;;19.60;54.00;;;;;;4881644;29;20118;-74
2022/11/28 06:26:17;;;;;;;2.63;1.20;;;19.60;54.00;;;;;;4901029;29;20044;-76
2022/11/28 06:28:43;;;;;;;;;;;19.60;54.00;;;;;;4899234;29;20056;-75
2022/11/28 06:31:18;;;;;;;6.50;1.50;;;19.60;53.90;;;;;;4888621;29;20291;-74
2022/11/28 06:33:44;;;;;;;3.08;1.40;;;19.50;53.80;;;;;;4881629;29;20504;-73
2022/11/28 06:36:11;;;;;;;2.53;1.30;;;19.50;53.80;;;;;;4883647;29;20069;-72
2022/11/28 06:38:37;;;;;;;3.10;1.60;;;19.50;53.80;;;;;;4880360;29;20048;-72
2022/11/28 06:41:09;;;;;;;3.80;1.50;;;19.50;54.60;;;;;;4880453;29;20040;-75
2022/11/28 06:43:35;;;;;;;3.75;1.50;;;19.50;53.90;;;;;;4895679;29;20048;-75
2022/11/28 06:46:01;;;;;;;6.57;2.00;;;19.50;53.80;;;;;;4894535;29;20055;-74
2022/11/28 06:48:27;;;;;;;5.78;1.63;;;19.40;53.70;;;;;;4900097;29;20067;-75
2022/11/28 06:50:54;;;;;;;6.63;1.65;;;19.50;53.80;;;;;;4905469;29;20032;-78
2022/11/28 06:53:20;;;;;;;2.03;1.45;;;19.50;53.80;;;;;;4897730;29;20055;-73
2022/11/28 06:55:46;;;;;;;1.92;1.30;;;19.50;53.90;;;;;;4884940;29;20103;-73
2022/11/28 06:58:12;;;;;;;9.77;1.50;;;19.50;54.00;;;;;;4887998;29;20052;-73
2022/11/28 07:00:38;;;;;;;3.05;1.45;;;19.50;54.00;;;;;;4902874;29;20572;-73
2022/11/28 07:03:03;;;;;;;2.22;1.33;;;19.50;54.10;;;;;;4906682;29;20068;-73
2022/11/28 07:05:29;;;;;;;2.88;1.55;;;19.50;54.20;;;;;;4909708;29;20301;-73
2022/11/28 07:07:59;;;;;;;4.30;1.50;;;19.50;54.20;;;;;;4883727;29;20080;-72
2022/11/28 07:10:26;;;;;;;7.28;2.08;;;19.50;54.20;;;;;;4897204;29;20390;-75
2022/11/28 07:12:54;;;;;;;1.93;1.47;;;19.50;54.30;;;;;;4901793;29;20052;-75
2022/11/28 07:15:19;;;;;;;2.83;1.40;;;19.50;54.40;;;;;;4905197;29;20063;-73
2022/11/28 07:17:45;;;;;;;2.95;1.50;;;19.40;54.30;;;;;;4904355;29;20052;-73
2022/11/28 07:20:11;;;;;;;2.13;1.45;;;19.40;54.40;;;;;;4904390;29;20048;-73
2022/11/28 07:22:36;;;;;;;3.65;1.67;;;19.50;54.40;;;;;;4898423;29;20044;-73
2022/11/28 07:25:02;;;;;;;2.78;1.65;;;19.40;54.40;;;;;;4879129;29;20048;-75
2022/11/28 07:27:28;;;;;;;2.65;1.63;;;19.50;54.40;;;;;;4895687;29;20048;-74
2022/11/28 07:29:54;;;;;;;3.78;1.70;;;19.50;54.50;;;;;;4904949;29;20040;-75
2022/11/28 07:32:19;;;;;;;1.92;1.40;;;19.50;54.50;;;;;;4897082;29;20052;-73
2022/11/28 07:34:45;;;;;;;3.38;1.77;;;19.50;54.40;;;;;;4898071;29;21042;-75
2022/11/28 07:37:12;;;;;;;2.08;1.60;;;19.50;54.40;;;;;;4899711;29;20040;-73
2022/11/28 07:39:37;;;;;;;2.33;1.35;;;19.50;54.40;;;;;;4906464;29;20056;-74
2022/11/28 07:42:03;;;;;;;2.35;1.52;;;19.50;54.40;;;;;;4894372;29;20512;-73
2022/11/28 07:44:29;;;;;;;3.15;1.50;;;19.50;54.40;;;;;;4889866;29;20040;-73
2022/11/28 07:46:54;;;;;;;1.58;1.42;;;19.50;54.40;;;;;;4908101;29;20172;-73
2022/11/28 07:49:20;;;;;;;1.88;1.30;;;19.50;54.40;;;;;;4898162;29;20642;-73
2022/11/28 07:51:46;;;;;;;2.42;1.40;;;19.60;54.40;;;;;;4893289;29;20047;-73
2022/11/28 07:54:11;;;;;;;3.15;1.30;;;19.50;54.40;;;;;;4894782;29;20096;-73
2022/11/28 07:56:37;;;;;;;1.50;1.20;;;19.60;54.30;;;;;;4899009;29;20208;-72
2022/11/28 07:59:04;;;;;;;2.45;1.20;;;19.60;54.30;;;;;;4902613;29;20048;-73
2022/11/28 08:01:33;;;;;;;3.08;1.35;;;19.60;54.30;;;;;;4900585;29;20040;-72
2022/11/28 08:03:59;;;;;;;6.30;1.40;;;19.60;54.20;;;;;;4894127;29;20575;-75
2022/11/28 08:06:27;;;;;;;1.88;1.30;;;19.60;54.20;;;;;;4902758;29;20083;-72
2022/11/28 08:08:53;;;;;;;3.83;1.30;;;19.60;54.30;;;;;;4904969;29;20523;-74
2022/11/28 08:11:21;;;;;;;3.63;1.50;;;19.60;54.10;;;;;;4895598;29;20056;-73
2022/11/28 08:13:47;;;;;;;3.30;1.50;;;19.60;54.10;;;;;;4906748;29;20048;-71
2022/11/28 08:16:15;;;;;;;3.67;2.50;;;19.60;53.90;;;;;;4904899;29;20315;-74
2022/11/28 08:18:41;;;;;;;3.97;2.00;;;19.60;53.60;;;;;;4905803;29;20083;-74
2022/11/28 08:21:13;;;;;;;3.72;2.00;;;19.60;53.60;;;;;;4899224;29;20059;-74
2022/11/28 08:23:39;;;;;;;3.55;2.60;;;19.50;53.50;;;;;;4856239;29;20777;-74
2022/11/28 08:26:07;;;;;;;4.03;2.78;;;19.50;53.30;;;;;;4901577;29;20083;-73
2022/11/28 08:28:34;;;;;;;4.95;2.40;;;19.40;53.10;;;;;;4898530;29;20044;-74
2022/11/28 08:31:17;;;;;;;5.20;2.50;;;19.40;53.00;;;;;;4887369;29;20056;-74
2022/11/28 08:33:45;;;;;;;6.07;2.50;;;19.40;52.80;;;;;;4878204;29;20083;-73
2022/11/28 08:36:12;;;;;;;4.20;2.72;;;19.30;52.80;;;;;;4911445;29;20092;-73
2022/11/28 08:38:38;;;;;;;5.88;2.33;;;19.30;52.60;;;;;;4901648;29;20076;-72
2022/11/28 08:41:12;;;;;;;3.90;2.10;;;19.30;52.70;;;;;;4905827;29;20179;-71
2022/11/28 08:43:38;;;;;;;3.10;2.05;;;19.30;52.60;;;;;;4878217;29;20485;-72
2022/11/28 08:46:04;;;;;;;4.45;1.80;;;19.20;52.60;;;;;;4904143;29;20535;-73
2022/11/28 08:48:30;;;;;;;8.65;1.85;;;19.30;52.50;;;;;;4899857;29;20052;-73
2022/11/28 08:50:56;;;;;;;4.78;1.95;;;19.30;52.50;;;;;;4865841;29;20433;-74
2022/11/28 08:53:22;;;;;;;2.95;1.90;;;19.30;52.60;;;;;;4898517;29;20067;-73
2022/11/28 08:55:47;;;;;;;4.60;1.63;;;19.40;52.70;;;;;;4896045;29;20052;-72
2022/11/28 08:58:13;;;;;;;2.60;1.60;;;19.40;52.70;;;;;;4903435;29;20051;-73
2022/11/28 09:00:41;;;;;;;2.72;1.45;;;19.40;52.70;;;;;;4870127;29;20539;-74
2022/11/28 09:03:14;;;;;;;3.20;1.48;;;19.50;52.70;;;;;;4901294;29;20078;-74
2022/11/28 09:05:41;;;;;;;2.35;1.50;;;19.50;52.80;;;;;;4875351;29;20920;-73
2022/11/28 09:08:08;;;;;;;4.10;1.30;;;19.50;52.80;;;;;;4885286;29;20063;-74
2022/11/28 09:10:37;;;;;;;2.35;1.40;;;19.50;52.70;;;;;;4902502;29;20083;-73
2022/11/28 09:13:03;;;;;;;4.53;1.40;;;19.50;52.60;;;;;;4904732;29;20064;-74
2022/11/28 09:15:29;;;;;;;3.28;1.20;;;19.50;52.60;;;;;;4903368;29;20083;-74
2022/11/28 09:17:54;;;;;;;2.97;1.33;;;19.50;53.00;;;;;;4898705;29;20125;-73
2022/11/28 09:20:20;;;;;;;3.95;1.27;;;19.60;52.70;;;;;;4886956;29;20066;-72
2022/11/28 09:22:46;;;;;;;2.13;1.10;;;19.60;52.70;;;;;;4859382;29;20058;-73
2022/11/28 09:25:13;;;;;;;1.70;1.05;;;19.60;52.80;;;;;;4900766;29;20043;-73
2022/11/28 09:27:39;;;;;;;1.25;1.10;;;19.60;52.80;;;;;;4902337;29;20091;-72
2022/11/28 09:30:06;;;;;;;1.10;1.00;;;19.60;52.80;;;;;;4897488;29;20134;-73
2022/11/28 09:32:32;;;;;;;1.42;1.20;;;19.60;52.70;;;;;;4894877;29;20083;-73
2022/11/28 09:34:57;;;;;;;1.60;1.30;;;19.60;52.80;;;;;;4889924;29;20145;-73
2022/11/28 09:37:23;;;;;;;1.63;1.00;;;19.60;52.80;;;;;;4900833;29;20051;-74
2022/11/28 09:39:49;;;;;;;2.03;1.15;;;19.60;52.80;;;;;;4894681;29;20043;-74
2022/11/28 09:42:42;;;;;;;4.28;1.23;;;19.60;52.80;;;;;;4902153;29;20048;-72
2022/11/28 09:45:17;;;;;;;1.10;0.95;;;19.60;52.80;;;;;;4900930;29;20067;-73
2022/11/28 09:47:48;;;;;;;1.30;1.02;;;19.60;52.80;;;;;;4886911;29;20139;-73
2022/11/28 09:50:24;;;;;;;2.17;1.45;;;19.60;52.80;;;;;;4892738;29;20044;-73
2022/11/28 09:53:19;;;;;;;2.30;1.10;;;19.70;52.90;;;;;;4886604;29;20044;-73
2022/11/28 09:55:56;;;;;;;3.42;1.02;;;19.70;52.90;;;;;;4896462;29;20246;-73
2022/11/28 09:58:40;;;;;;;5.30;1.02;;;19.70;52.90;;;;;;4895176;29;20067;-73
2022/11/28 10:01:30;;;;;;;1.50;0.85;;;19.60;52.90;;;;;;4899013;29;20076;-73
2022/11/28 10:04:01;;;;;;;1.75;1.15;;;19.70;53.00;;;;;;4884930;29;20048;-73
2022/11/28 10:06:39;;;;;;;1.20;1.00;;;19.60;52.90;;;;;;4897595;29;20044;-72
2022/11/28 10:09:23;;;;;;;1.42;1.10;;;19.70;53.00;;;;;;4891564;29;20051;-72
2022/11/28 10:12:26;;;;;;;1.58;0.93;;;19.70;53.10;;;;;;4900922;29;20135;-72
2022/11/28 10:15:29;;;;;;;1.70;0.90;;;19.70;53.10;;;;;;4899663;29;20048;-72
2022/11/28 10:18:29;;;;;;;1.38;0.95;;;19.70;53.10;;;;;;4886082;29;20484;-75
2022/11/28 10:20:59;;;;;;;1.30;1.10;;;19.70;53.10;;;;;;4871200;29;20668;-75
2022/11/28 10:23:37;;;;;;;1.85;0.77;;;19.70;53.00;;;;;;4883906;29;20083;-75
2022/11/28 10:26:15;;;;;;;1.50;0.88;;;19.70;53.00;;;;;;4890862;29;20050;-75
2022/11/28 10:28:46;;;;;;;1.23;0.90;;;19.60;52.90;;;;;;4894659;29;21327;-76
2022/11/28 10:31:35;;;;;;;1.02;0.90;;;19.70;53.00;;;;;;4896789;29;20043;-74
2022/11/28 10:34:29;;;;;;;1.75;0.90;;;19.60;53.00;;;;;;4879824;29;20083;-74
2022/11/28 10:37:03;;;;;;;1.33;0.90;;;19.60;52.90;;;;;;4904013;29;20044;-76
2022/11/28 10:39:28;;;;;;;1.45;0.70;;;19.60;53.00;;;;;;4899030;29;20063;-76
2022/11/28 10:42:19;;;;;;;1.10;0.65;;;19.60;53.00;;;;;;4909582;29;20450;-76
2022/11/28 10:45:06;;;;;;;1.45;0.90;;;19.60;52.90;;;;;;4888989;29;20067;-75
2022/11/28 10:47:52;;;;;;;1.23;0.93;;;19.60;52.80;;;;;;4898300;29;20134;-75
2022/11/28 10:50:48;;;;;;;2.00;1.25;;;19.60;52.90;;;;;;4898599;29;20616;-75
2022/11/28 10:53:26;;;;;;;1.20;1.10;;;19.60;52.70;;;;;;4900347;29;20046;-73
2022/11/28 10:56:17;;;;;;;3.33;1.20;;;19.50;52.60;;;;;;4905159;29;20556;-76
2022/11/28 10:59:34;;;;;;;3.10;1.20;;;19.50;52.60;;;;;;4903600;29;20079;-73
2022/11/28 11:02:17;;;;;;;3.67;0.85;;;19.40;52.50;;;;;;4788552;29;20207;-74
2022/11/28 11:04:43;;;;;;;4.63;1.30;;;19.40;52.60;;;;;;4788039;29;20055;-73
2022/11/28 11:07:15;;;;;;;3.85;0.85;;;19.50;52.60;;;;;;4832989;29;20052;-74
2022/11/28 11:09:42;;;;;;;2.40;0.90;;;19.50;52.60;;;;;;4882971;29;20107;-72
2022/11/28 11:12:31;;;;;;;2.53;1.10;;;19.50;52.60;;;;;;4900387;29;20056;-75
2022/11/28 11:14:56;;;;;;;1.30;1.13;;;19.50;52.50;;;;;;4884792;29;20639;-73
2022/11/28 11:17:33;;;;;;;3.13;1.40;;;19.50;52.50;;;;;;4879497;29;20060;-74
2022/11/28 11:20:00;;;;;;;2.45;1.25;;;19.50;52.40;;;;;;4879433;29;20051;-74
2022/11/28 11:22:30;;;;;;;1.10;1.00;;;19.40;52.30;;;;;;4880106;29;20067;-73
2022/11/28 11:25:11;;;;;;;1.33;1.23;;;19.40;52.30;;;;;;4880185;29;20036;-73
2022/11/28 11:27:39;;;;;;;1.33;1.23;;;19.40;52.30;;;;;;4857435;29;20230;-73
2022/11/28 11:30:17;;;;;;;1.92;1.45;;;19.40;52.30;;;;;;4881010;29;20040;-73
2022/11/28 11:32:47;;;;;;;1.45;1.35;;;19.40;52.10;;;;;;4871588;29;20060;-73
2022/11/28 11:35:28;;;;;;;2.05;1.50;;;19.30;52.10;;;;;;4880607;29;20059;-73
2022/11/28 11:38:24;;;;;;;1.83;1.50;;;19.30;52.10;;;;;;4883561;29;20517;-74
2022/11/28 11:40:51;;;;;;;1.55;1.23;;;19.30;52.10;;;;;;4880558;29;20059;-73
2022/11/28 11:43:32;;;;;;;1.10;1.00;;;19.30;52.10;;;;;;4881937;29;20091;-73
2022/11/28 11:46:09;;;;;;;2.90;1.10;;;19.30;52.10;;;;;;4881638;29;20508;-75
2022/11/28 11:48:38;;;;;;;2.53;0.97;;;19.40;52.10;;;;;;4876970;29;20458;-73
2022/11/28 11:51:04;;;;;;;1.73;1.05;;;19.40;52.10;;;;;;4857385;29;20063;-75
2022/11/28 11:53:30;;;;;;;1.10;1.00;;;19.40;52.00;;;;;;4897202;29;20076;-74
2022/11/28 11:56:01;;;;;;;3.17;1.13;;;19.40;52.10;;;;;;4882429;29;20180;-72
2022/11/28 11:58:42;;;;;;;1.73;1.10;;;19.40;52.10;;;;;;4866165;29;20059;-75
2022/11/28 12:01:10;;;;;;;1.17;0.90;;;19.50;52.20;;;;;;4872505;29;20237;-74
2022/11/28 12:03:55;;;;;;;2.47;1.00;;;19.50;52.30;;;;;;4881461;29;20046;-75
2022/11/28 12:06:26;;;;;;;1.10;0.80;;;19.50;52.30;;;;;;4880538;29;20053;-71
2022/11/28 12:09:12;;;;;;;0.93;0.90;;;19.50;52.30;;;;;;4903004;29;20051;-72
2022/11/28 12:11:42;;;;;;;2.83;0.90;;;19.60;52.30;;;;;;4876001;29;20047;-70
2022/11/28 12:14:46;;;;;;;2.25;0.85;;;19.60;52.30;;;;;;4896418;29;20166;-70
2022/11/28 12:17:38;;;;;;;1.15;0.80;;;19.70;52.50;;;;;;4894120;29;20135;-69
2022/11/28 12:20:22;;;;;;;1.52;0.93;;;19.70;52.50;;;;;;4896354;29;20047;-68
2022/11/28 12:23:24;;;;;;;1.00;0.90;;;19.70;52.50;;;;;;4895541;29;20132;-69
2022/11/28 12:25:49;;;;;;;1.65;0.95;;;19.70;52.50;;;;;;4883015;29;20067;-69
2022/11/28 12:28:44;;;;;;;1.15;0.90;;;19.70;52.50;;;;;;4881532;29;20052;-70
2022/11/28 12:31:26;;;;;;;2.55;0.98;;;19.70;52.60;;;;;;4880200;29;20044;-70
2022/11/28 12:34:10;;;;;;;1.20;1.00;;;19.70;52.60;;;;;;4887036;29;20556;-70
2022/11/28 12:36:57;;;;;;;1.50;1.13;;;19.70;52.60;;;;;;4887338;29;20048;-70
2022/11/28 12:39:54;;;;;;;2.78;0.93;;;19.80;52.70;;;;;;4866977;29;20056;-70
2022/11/28 12:42:35;;;;;;;1.00;0.80;;;19.80;52.70;;;;;;4879303;29;20056;-70
2022/11/28 12:45:22;;;;;;;1.08;0.77;;;19.80;52.70;;;;;;4897641;29;20071;-70
2022/11/28 12:48:00;;;;;;;2.55;1.10;;;19.80;52.70;;;;;;4882196;29;20143;-72
2022/11/28 12:50:28;;;;;;;1.02;0.90;;;19.80;52.80;;;;;;4864838;29;20052;-74
2022/11/28 12:53:26;;;;;;;2.45;0.80;;;19.80;52.70;;;;;;4895767;29;20519;-73
2022/11/28 12:56:07;;;;;;;2.30;0.73;;;19.90;52.80;;;;;;4867509;29;20099;-72
2022/11/28 12:58:39;;;;;;;3.03;1.00;;;19.90;52.70;;;;;;4873852;29;20055;-73
2022/11/28 13:01:42;;;;;;;1.48;1.00;;;19.90;52.70;;;;;;4873315;29;20119;-73
2022/11/28 13:04:28;;;;;;;4.65;0.93;;;19.90;52.70;;;;;;4881316;29;20051;-73
2022/11/28 13:07:01;;;;;;;1.13;0.80;;;19.90;53.60;;;;;;4839542;29;20051;-71
2022/11/28 13:09:36;;;;;;;1.67;0.90;;;19.90;52.80;;;;;;4879143;29;20055;-72
2022/11/28 13:12:13;;;;;;;2.25;1.08;;;19.90;52.80;;;;;;4877274;29;20087;-72
2022/11/28 13:15:01;;;;;;;2.67;1.00;;;19.90;52.80;;;;;;4879751;29;20464;-73
2022/11/28 13:17:39;;;;;;;1.30;0.93;;;19.90;52.90;;;;;;4869208;29;20143;-73